sensor_id;sensor_type;location;lat;lon;timestamp;temperature;humidity
4081;DHT22;2055;50.074;8.436;2022-11-27T00:00:58;6.50;99.90
4081;DHT22;2055;50.074;8.436;2022-11-27T00:03:24;6.50;99.90
4081;DHT22;2055;50.074;8.436;2022-11-27T00:05:54;6.50;99.90
4081;DHT22;2055;50.074;8.436;2022-11-27T00:08:21;6.40;99.90
4081;DHT22;2055;50.074;8.436;2022-11-27T00:10:46;6.50;99.90
4081;DHT22;2055;50.074;8.436;2022-11-27T00:13:12;6.50;99.90
4081;DHT22;2055;50.074;8.436;2022-11-27T00:15:37;6.40;99.90
4081;DHT22;2055;50.074;8.436;2022-11-27T00:18:03;6.40;99.90
4081;DHT22;2055;50.074;8.436;2022-11-27T00:20:29;6.40;99.90
4081;DHT22;2055;50.074;8.436;2022-11-27T00:22:54;6.40;99.90
4081;DHT22;2055;50.074;8.436;2022-11-27T00:25:20;6.40;99.90
4081;DHT22;2055;50.074;8.436;2022-11-27T00:27:45;6.40;99.90
4081;DHT22;2055;50.074;8.436;2022-11-27T00:30:11;6.40;99.90
4081;DHT22;2055;50.074;8.436;2022-11-27T00:32:37;6.40;99.90
4081;DHT22;2055;50.074;8.436;2022-11-27T00:35:03;6.40;99.90
4081;DHT22;2055;50.074;8.436;2022-11-27T00:37:29;6.10;99.90
4081;DHT22;2055;50.074;8.436;2022-11-27T00:39:54;6.40;99.90
4081;DHT22;2055;50.074;8.436;2022-11-27T00:42:20;6.40;99.90
4081;DHT22;2055;50.074;8.436;2022-11-27T00:44:45;6.40;99.90
4081;DHT22;2055;50.074;8.436;2022-11-27T00:47:11;6.40;99.90
4081;DHT22;2055;50.074;8.436;2022-11-27T00:49:36;6.40;99.90
4081;DHT22;2055;50.074;8.436;2022-11-27T00:52:02;6.40;99.90
4081;DHT22;2055;50.074;8.436;2022-11-27T00:54:28;6.50;99.90
4081;DHT22;2055;50.074;8.436;2022-11-27T00:56:53;6.40;99.90
4081;DHT22;2055;50.074;8.436;2022-11-27T00:59:19;6.40;99.90
4081;DHT22;2055;50.074;8.436;2022-11-27T01:01:45;6.50;99.90
4081;DHT22;2055;50.074;8.436;2022-11-27T01:04:12;6.50;99.90
4081;DHT22;2055;50.074;8.436;2022-11-27T01:06:38;6.50;99.90
4081;DHT22;2055;50.074;8.436;2022-11-27T01:09:04;6.50;99.90
4081;DHT22;2055;50.074;8.436;2022-11-27T01:11:32;6.50;99.90
4081;DHT22;2055;50.074;8.436;2022-11-27T01:14:00;6.50;99.90
4081;DHT22;2055;50.074;8.436;2022-11-27T01:16:27;6.50;99.90
4081;DHT22;2055;50.074;8.436;2022-11-27T01:18:55;6.50;99.90
4081;DHT22;2055;50.074;8.436;2022-11-27T01:21:22;6.50;99.90
4081;DHT22;2055;50.074;8.436;2022-11-27T01:23:48;6.50;99.90
4081;DHT22;2055;50.074;8.436;2022-11-27T01:26:14;6.50;99.90
4081;DHT22;2055;50.074;8.436;2022-11-27T01:28:42;6.50;99.90
4081;DHT22;2055;50.074;8.436;2022-11-27T01:31:12;6.50;99.90
4081;DHT22;2055;50.074;8.436;2022-11-27T01:33:38;6.50;99.90
4081;DHT22;2055;50.074;8.436;2022-11-27T01:36:05;6.50;99.90
4081;DHT22;2055;50.074;8.436;2022-11-27T01:38:32;6.50;99.90
4081;DHT22;2055;50.074;8.436;2022-11-27T01:48:46;6.50;99.90
4081;DHT22;2055;50.074;8.436;2022-11-27T01:51:12;6.50;99.90
4081;DHT22;2055;50.074;8.436;2022-11-27T01:53:38;6.60;99.90
4081;DHT22;2055;50.074;8.436;2022-11-27T01:56:04;6.60;99.90
4081;DHT22;2055;50.074;8.436;2022-11-27T01:58:31;6.60;99.90
4081;DHT22;2055;50.074;8.436;2022-11-27T02:00:57;6.60;99.90
4081;DHT22;2055;50.074;8.436;2022-11-27T02:03:22;6.60;99.90
4081;DHT22;2055;50.074;8.436;2022-11-27T02:05:48;6.60;99.90
4081;DHT22;2055;50.074;8.436;2022-11-27T02:08:15;6.60;99.90
4081;DHT22;2055;50.074;8.436;2022-11-27T02:13:29;6.60;99.90
4081;DHT22;2055;50.074;8.436;2022-11-27T02:19:35;6.70;99.90
4081;DHT22;2055;50.074;8.436;2022-11-27T02:22:23;6.60;99.90
4081;DHT22;2055;50.074;8.436;2022-11-27T02:27:56;6.60;99.90
4081;DHT22;2055;50.074;8.436;2022-11-27T02:30:27;6.60;99.90
4081;DHT22;2055;50.074;8.436;2022-11-27T02:32:58;6.50;99.90
4081;DHT22;2055;50.074;8.436;2022-11-27T02:38:05;6.50;99.90
4081;DHT22;2055;50.074;8.436;2022-11-27T02:43:10;6.30;99.90
4081;DHT22;2055;50.074;8.436;2022-11-27T02:45:47;6.40;99.90
4081;DHT22;2055;50.074;8.436;2022-11-27T02:48:15;6.30;99.90
4081;DHT22;2055;50.074;8.436;2022-11-27T02:50:44;6.30;99.90
4081;DHT22;2055;50.074;8.436;2022-11-27T02:53:16;6.30;99.90
4081;DHT22;2055;50.074;8.436;2022-11-27T02:55:43;6.30;99.90
4081;DHT22;2055;50.074;8.436;2022-11-27T02:58:13;6.20;99.90
4081;DHT22;2055;50.074;8.436;2022-11-27T03:00:41;6.20;99.90
4081;DHT22;2055;50.074;8.436;2022-11-27T03:03:09;6.20;99.90
4081;DHT22;2055;50.074;8.436;2022-11-27T03:05:38;6.10;99.90
4081;DHT22;2055;50.074;8.436;2022-11-27T03:08:27;6.20;99.90
4081;DHT22;2055;50.074;8.436;2022-11-27T03:11:02;6.10;99.90
4081;DHT22;2055;50.074;8.436;2022-11-27T03:13:31;6.10;99.90
4081;DHT22;2055;50.074;8.436;2022-11-27T03:18:43;6.20;99.90
4081;DHT22;2055;50.074;8.436;2022-11-27T03:23:47;6.20;99.90
4081;DHT22;2055;50.074;8.436;2022-11-27T03:26:13;6.20;99.90
4081;DHT22;2055;50.074;8.436;2022-11-27T03:28:39;6.20;99.90
4081;DHT22;2055;50.074;8.436;2022-11-27T03:31:07;6.20;99.90
4081;DHT22;2055;50.074;8.436;2022-11-27T03:33:32;6.20;99.90
4081;DHT22;2055;50.074;8.436;2022-11-27T03:35:58;6.20;99.90
4081;DHT22;2055;50.074;8.436;2022-11-27T03:38:23;6.10;99.90
4081;DHT22;2055;50.074;8.436;2022-11-27T03:41:03;6.10;99.90
4081;DHT22;2055;50.074;8.436;2022-11-27T03:43:34;6.10;99.90
4081;DHT22;2055;50.074;8.436;2022-11-27T03:46:18;6.10;99.90
4081;DHT22;2055;50.074;8.436;2022-11-27T03:49:07;6.00;99.90
4081;DHT22;2055;50.074;8.436;2022-11-27T03:54:40;5.90;99.90
4081;DHT22;2055;50.074;8.436;2022-11-27T03:57:28;5.80;99.90
4081;DHT22;2055;50.074;8.436;2022-11-27T03:59:55;5.60;99.90
4081;DHT22;2055;50.074;8.436;2022-11-27T04:02:43;5.50;99.90
4081;DHT22;2055;50.074;8.436;2022-11-27T04:05:12;5.30;99.90
4081;DHT22;2055;50.074;8.436;2022-11-27T04:07:38;5.20;99.90
4081;DHT22;2055;50.074;8.436;2022-11-27T04:10:04;5.00;99.90
4081;DHT22;2055;50.074;8.436;2022-11-27T04:12:30;4.90;99.90
4081;DHT22;2055;50.074;8.436;2022-11-27T04:14:55;4.80;99.90
4081;DHT22;2055;50.074;8.436;2022-11-27T04:17:21;4.80;99.90
4081;DHT22;2055;50.074;8.436;2022-11-27T04:19:47;4.70;99.90
4081;DHT22;2055;50.074;8.436;2022-11-27T04:22:12;4.70;99.90
4081;DHT22;2055;50.074;8.436;2022-11-27T04:24:38;4.60;99.90
4081;DHT22;2055;50.074;8.436;2022-11-27T04:27:03;4.50;99.90
4081;DHT22;2055;50.074;8.436;2022-11-27T04:29:29;4.50;99.90
4081;DHT22;2055;50.074;8.436;2022-11-27T04:31:54;4.60;99.90
4081;DHT22;2055;50.074;8.436;2022-11-27T04:34:20;4.70;99.90
4081;DHT22;2055;50.074;8.436;2022-11-27T04:36:45;4.70;99.90
4081;DHT22;2055;50.074;8.436;2022-11-27T04:39:11;4.90;99.90
4081;DHT22;2055;50.074;8.436;2022-11-27T04:41:38;4.90;99.90
4081;DHT22;2055;50.074;8.436;2022-11-27T04:44:04;4.80;99.90
4081;DHT22;2055;50.074;8.436;2022-11-27T04:46:30;4.80;99.90
4081;DHT22;2055;50.074;8.436;2022-11-27T04:48:55;4.70;99.90
4081;DHT22;2055;50.074;8.436;2022-11-27T04:51:21;4.70;99.90
4081;DHT22;2055;50.074;8.436;2022-11-27T04:53:46;4.70;99.90
4081;DHT22;2055;50.074;8.436;2022-11-27T04:56:12;4.70;99.90
4081;DHT22;2055;50.074;8.436;2022-11-27T04:58:38;4.70;99.90
4081;DHT22;2055;50.074;8.436;2022-11-27T05:01:03;4.60;99.90
4081;DHT22;2055;50.074;8.436;2022-11-27T05:03:29;4.60;99.90
4081;DHT22;2055;50.074;8.436;2022-11-27T05:05:56;4.40;99.90
4081;DHT22;2055;50.074;8.436;2022-11-27T05:08:22;4.40;99.90
4081;DHT22;2055;50.074;8.436;2022-11-27T05:11:01;4.40;99.90
4081;DHT22;2055;50.074;8.436;2022-11-27T05:13:26;4.40;99.90
4081;DHT22;2055;50.074;8.436;2022-11-27T05:15:52;4.40;99.90
4081;DHT22;2055;50.074;8.436;2022-11-27T05:18:18;4.30;99.90
4081;DHT22;2055;50.074;8.436;2022-11-27T05:20:43;4.20;99.90
4081;DHT22;2055;50.074;8.436;2022-11-27T05:23:09;4.20;99.90
4081;DHT22;2055;50.074;8.436;2022-11-27T05:25:34;4.20;99.90
4081;DHT22;2055;50.074;8.436;2022-11-27T05:28:00;4.20;99.90
4081;DHT22;2055;50.074;8.436;2022-11-27T05:30:25;4.20;99.90
4081;DHT22;2055;50.074;8.436;2022-11-27T05:32:51;4.20;99.90
4081;DHT22;2055;50.074;8.436;2022-11-27T05:35:16;4.20;99.90
4081;DHT22;2055;50.074;8.436;2022-11-27T05:37:42;4.30;99.90
4081;DHT22;2055;50.074;8.436;2022-11-27T05:40:07;4.20;99.90
4081;DHT22;2055;50.074;8.436;2022-11-27T05:42:33;4.20;99.90
4081;DHT22;2055;50.074;8.436;2022-11-27T05:44:58;4.10;99.90
4081;DHT22;2055;50.074;8.436;2022-11-27T05:47:24;4.10;99.90
4081;DHT22;2055;50.074;8.436;2022-11-27T05:49:50;4.00;99.90
4081;DHT22;2055;50.074;8.436;2022-11-27T05:52:16;3.90;99.90
4081;DHT22;2055;50.074;8.436;2022-11-27T05:54:41;3.90;99.90
4081;DHT22;2055;50.074;8.436;2022-11-27T05:57:07;3.90;99.90
4081;DHT22;2055;50.074;8.436;2022-11-27T05:59:32;3.90;99.90
4081;DHT22;2055;50.074;8.436;2022-11-27T06:01:58;3.90;99.90
4081;DHT22;2055;50.074;8.436;2022-11-27T06:04:23;3.90;99.90
4081;DHT22;2055;50.074;8.436;2022-11-27T06:06:49;3.90;99.90
4081;DHT22;2055;50.074;8.436;2022-11-27T06:09:14;3.90;99.90
4081;DHT22;2055;50.074;8.436;2022-11-27T06:11:40;4.00;99.90
4081;DHT22;2055;50.074;8.436;2022-11-27T06:14:08;4.00;99.90
4081;DHT22;2055;50.074;8.436;2022-11-27T06:16:34;4.00;99.90
4081;DHT22;2055;50.074;8.436;2022-11-27T06:18:59;3.90;99.90
4081;DHT22;2055;50.074;8.436;2022-11-27T06:21:25;4.00;99.90
4081;DHT22;2055;50.074;8.436;2022-11-27T06:23:54;3.90;99.90
4081;DHT22;2055;50.074;8.436;2022-11-27T06:26:23;3.90;99.90
4081;DHT22;2055;50.074;8.436;2022-11-27T06:28:49;3.90;99.90
4081;DHT22;2055;50.074;8.436;2022-11-27T06:31:20;4.00;99.90
4081;DHT22;2055;50.074;8.436;2022-11-27T06:33:46;4.00;99.90
4081;DHT22;2055;50.074;8.436;2022-11-27T06:36:12;3.90;99.90
4081;DHT22;2055;50.074;8.436;2022-11-27T06:38:38;4.00;99.90
4081;DHT22;2055;50.074;8.436;2022-11-27T06:41:09;3.90;99.90
4081;DHT22;2055;50.074;8.436;2022-11-27T06:43:35;3.90;99.90
4081;DHT22;2055;50.074;8.436;2022-11-27T06:46:01;3.90;99.90
4081;DHT22;2055;50.074;8.436;2022-11-27T06:48:28;3.90;99.90
4081;DHT22;2055;50.074;8.436;2022-11-27T06:51:01;3.90;99.90
4081;DHT22;2055;50.074;8.436;2022-11-27T06:53:28;4.00;99.90
4081;DHT22;2055;50.074;8.436;2022-11-27T06:55:54;4.00;99.90
4081;DHT22;2055;50.074;8.436;2022-11-27T06:58:20;4.00;99.90
4081;DHT22;2055;50.074;8.436;2022-11-27T07:00:45;4.00;99.90
4081;DHT22;2055;50.074;8.436;2022-11-27T07:03:11;4.10;99.90
4081;DHT22;2055;50.074;8.436;2022-11-27T07:05:36;4.10;99.90
4081;DHT22;2055;50.074;8.436;2022-11-27T07:08:02;4.10;99.90
4081;DHT22;2055;50.074;8.436;2022-11-27T07:10:28;4.10;99.90
4081;DHT22;2055;50.074;8.436;2022-11-27T07:12:53;4.10;99.90
4081;DHT22;2055;50.074;8.436;2022-11-27T07:15:19;4.20;99.90
4081;DHT22;2055;50.074;8.436;2022-11-27T07:17:44;4.20;99.90
4081;DHT22;2055;50.074;8.436;2022-11-27T07:20:10;4.20;99.90
4081;DHT22;2055;50.074;8.436;2022-11-27T07:22:36;4.20;99.90
4081;DHT22;2055;50.074;8.436;2022-11-27T07:25:02;4.30;99.90
4081;DHT22;2055;50.074;8.436;2022-11-27T07:27:27;4.30;99.90
4081;DHT22;2055;50.074;8.436;2022-11-27T07:29:53;4.40;99.90
4081;DHT22;2055;50.074;8.436;2022-11-27T07:32:19;4.40;99.90
4081;DHT22;2055;50.074;8.436;2022-11-27T07:34:44;4.50;99.90
4081;DHT22;2055;50.074;8.436;2022-11-27T07:37:10;4.60;99.90
4081;DHT22;2055;50.074;8.436;2022-11-27T07:39:35;4.60;99.90
4081;DHT22;2055;50.074;8.436;2022-11-27T07:42:01;4.60;99.90
4081;DHT22;2055;50.074;8.436;2022-11-27T07:44:26;4.70;99.90
4081;DHT22;2055;50.074;8.436;2022-11-27T07:46:52;4.80;99.90
4081;DHT22;2055;50.074;8.436;2022-11-27T07:49:17;4.80;99.90
4081;DHT22;2055;50.074;8.436;2022-11-27T07:51:43;4.80;99.90
4081;DHT22;2055;50.074;8.436;2022-11-27T07:54:09;4.90;99.90
4081;DHT22;2055;50.074;8.436;2022-11-27T07:56:34;4.90;99.90
4081;DHT22;2055;50.074;8.436;2022-11-27T07:59:00;4.90;99.90
4081;DHT22;2055;50.074;8.436;2022-11-27T08:01:25;4.90;99.90
4081;DHT22;2055;50.074;8.436;2022-11-27T08:03:51;4.90;99.90
4081;DHT22;2055;50.074;8.436;2022-11-27T08:06:19;5.00;99.90
4081;DHT22;2055;50.074;8.436;2022-11-27T08:08:46;5.00;99.90
4081;DHT22;2055;50.074;8.436;2022-11-27T08:11:38;4.90;99.90
4081;DHT22;2055;50.074;8.436;2022-11-27T08:14:05;4.90;99.90
4081;DHT22;2055;50.074;8.436;2022-11-27T08:16:32;4.80;99.90
4081;DHT22;2055;50.074;8.436;2022-11-27T08:18:58;4.70;99.90
4081;DHT22;2055;50.074;8.436;2022-11-27T08:21:25;4.70;99.90
4081;DHT22;2055;50.074;8.436;2022-11-27T08:23:51;4.60;99.90
4081;DHT22;2055;50.074;8.436;2022-11-27T08:26:17;4.70;99.90
4081;DHT22;2055;50.074;8.436;2022-11-27T08:28:43;4.70;99.90
4081;DHT22;2055;50.074;8.436;2022-11-27T08:31:10;4.80;99.90
4081;DHT22;2055;50.074;8.436;2022-11-27T08:33:36;4.80;99.90
4081;DHT22;2055;50.074;8.436;2022-11-27T08:36:03;5.00;99.90
4081;DHT22;2055;50.074;8.436;2022-11-27T08:38:28;5.20;99.90
4081;DHT22;2055;50.074;8.436;2022-11-27T08:40:59;5.20;99.90
4081;DHT22;2055;50.074;8.436;2022-11-27T08:43:25;5.40;99.90
4081;DHT22;2055;50.074;8.436;2022-11-27T08:45:51;5.40;99.90
4081;DHT22;2055;50.074;8.436;2022-11-27T08:48:18;5.50;99.90
4081;DHT22;2055;50.074;8.436;2022-11-27T08:50:44;5.60;99.90
4081;DHT22;2055;50.074;8.436;2022-11-27T08:53:10;5.60;99.90
4081;DHT22;2055;50.074;8.436;2022-11-27T08:55:36;5.60;99.90
4081;DHT22;2055;50.074;8.436;2022-11-27T08:58:01;5.50;99.90
4081;DHT22;2055;50.074;8.436;2022-11-27T09:00:28;5.40;99.90
4081;DHT22;2055;50.074;8.436;2022-11-27T09:02:54;5.30;99.90
4081;DHT22;2055;50.074;8.436;2022-11-27T09:05:20;5.30;99.90
4081;DHT22;2055;50.074;8.436;2022-11-27T09:07:49;5.30;99.90
4081;DHT22;2055;50.074;8.436;2022-11-27T09:10:14;5.30;99.90
4081;DHT22;2055;50.074;8.436;2022-11-27T09:12:40;5.40;99.90
4081;DHT22;2055;50.074;8.436;2022-11-27T09:15:06;5.20;99.90
4081;DHT22;2055;50.074;8.436;2022-11-27T09:17:31;5.20;99.90
4081;DHT22;2055;50.074;8.436;2022-11-27T09:19:57;5.30;99.90
4081;DHT22;2055;50.074;8.436;2022-11-27T09:22:22;5.40;99.90
4081;DHT22;2055;50.074;8.436;2022-11-27T09:24:48;5.50;99.90
4081;DHT22;2055;50.074;8.436;2022-11-27T09:27:13;5.60;99.90
4081;DHT22;2055;50.074;8.436;2022-11-27T09:29:39;5.70;99.90
4081;DHT22;2055;50.074;8.436;2022-11-27T09:32:05;5.80;99.90
4081;DHT22;2055;50.074;8.436;2022-11-27T09:34:30;5.80;99.90
4081;DHT22;2055;50.074;8.436;2022-11-27T09:36:56;5.80;99.90
4081;DHT22;2055;50.074;8.436;2022-11-27T09:39:21;5.70;99.90
4081;DHT22;2055;50.074;8.436;2022-11-27T09:41:58;5.60;99.90
4081;DHT22;2055;50.074;8.436;2022-11-27T09:44:42;5.70;99.90
4081;DHT22;2055;50.074;8.436;2022-11-27T09:47:39;5.50;99.90
4081;DHT22;2055;50.074;8.436;2022-11-27T09:50:27;5.50;99.90
4081;DHT22;2055;50.074;8.436;2022-11-27T09:52:58;5.50;99.90
4081;DHT22;2055;50.074;8.436;2022-11-27T09:55:41;5.50;99.90
4081;DHT22;2055;50.074;8.436;2022-11-27T09:58:30;5.50;99.90
4081;DHT22;2055;50.074;8.436;2022-11-27T10:00:59;5.70;99.90
4081;DHT22;2055;50.074;8.436;2022-11-27T10:03:26;5.90;99.90
4081;DHT22;2055;50.074;8.436;2022-11-27T10:06:31;5.90;99.90
4081;DHT22;2055;50.074;8.436;2022-11-27T10:09:10;5.90;99.90
4081;DHT22;2055;50.074;8.436;2022-11-27T10:12:00;6.00;99.90
4081;DHT22;2055;50.074;8.436;2022-11-27T10:17:26;6.00;99.90
4081;DHT22;2055;50.074;8.436;2022-11-27T10:23:02;6.30;99.90
4081;DHT22;2055;50.074;8.436;2022-11-27T10:26:03;6.70;99.90
4081;DHT22;2055;50.074;8.436;2022-11-27T10:33:56;7.40;99.90
4081;DHT22;2055;50.074;8.436;2022-11-27T10:36:33;7.40;99.90
4081;DHT22;2055;50.074;8.436;2022-11-27T10:39:00;7.70;99.90
4081;DHT22;2055;50.074;8.436;2022-11-27T10:41:33;7.90;99.90
4081;DHT22;2055;50.074;8.436;2022-11-27T10:47:05;7.80;99.90
4081;DHT22;2055;50.074;8.436;2022-11-27T10:49:34;7.70;99.90
4081;DHT22;2055;50.074;8.436;2022-11-27T10:52:02;7.40;99.90
4081;DHT22;2055;50.074;8.436;2022-11-27T10:54:33;7.40;99.90
4081;DHT22;2055;50.074;8.436;2022-11-27T11:02:32;7.10;99.90
4081;DHT22;2055;50.074;8.436;2022-11-27T11:07:58;7.00;99.90
4081;DHT22;2055;50.074;8.436;2022-11-27T11:10:36;6.90;99.90
4081;DHT22;2055;50.074;8.436;2022-11-27T11:13:13;6.90;99.90
4081;DHT22;2055;50.074;8.436;2022-11-27T11:16:03;7.00;99.90
4081;DHT22;2055;50.074;8.436;2022-11-27T11:18:32;6.90;99.90
4081;DHT22;2055;50.074;8.436;2022-11-27T11:21:01;6.90;99.90
4081;DHT22;2055;50.074;8.436;2022-11-27T11:23:35;7.10;99.90
4081;DHT22;2055;50.074;8.436;2022-11-27T11:28:51;7.10;99.90
4081;DHT22;2055;50.074;8.436;2022-11-27T11:31:20;7.00;99.90
4081;DHT22;2055;50.074;8.436;2022-11-27T11:34:16;7.10;99.90
4081;DHT22;2055;50.074;8.436;2022-11-27T11:37:06;7.40;99.90
4081;DHT22;2055;50.074;8.436;2022-11-27T11:39:38;7.50;99.90
4081;DHT22;2055;50.074;8.436;2022-11-27T11:42:09;7.90;99.90
4081;DHT22;2055;50.074;8.436;2022-11-27T11:44:37;8.10;99.90
4081;DHT22;2055;50.074;8.436;2022-11-27T11:47:03;8.10;99.90
4081;DHT22;2055;50.074;8.436;2022-11-27T11:49:30;8.10;99.90
4081;DHT22;2055;50.074;8.436;2022-11-27T11:52:08;8.40;99.90
4081;DHT22;2055;50.074;8.436;2022-11-27T12:00:19;8.30;99.90
4081;DHT22;2055;50.074;8.436;2022-11-27T12:06:10;8.50;99.90
4081;DHT22;2055;50.074;8.436;2022-11-27T12:11:14;8.60;99.90
4081;DHT22;2055;50.074;8.436;2022-11-27T12:14:02;8.70;99.90
4081;DHT22;2055;50.074;8.436;2022-11-27T12:17:03;8.60;99.90
4081;DHT22;2055;50.074;8.436;2022-11-27T12:24:59;8.40;99.90
4081;DHT22;2055;50.074;8.436;2022-11-27T12:27:44;8.50;99.90
4081;DHT22;2055;50.074;8.436;2022-11-27T12:30:20;8.30;99.90
4081;DHT22;2055;50.074;8.436;2022-11-27T12:33:01;8.40;99.90
4081;DHT22;2055;50.074;8.436;2022-11-27T12:35:56;8.40;99.90
4081;DHT22;2055;50.074;8.436;2022-11-27T12:43:53;8.50;99.90
4081;DHT22;2055;50.074;8.436;2022-11-27T12:46:50;8.60;99.90
4081;DHT22;2055;50.074;8.436;2022-11-27T12:49:36;8.70;99.90
4081;DHT22;2055;50.074;8.436;2022-11-27T12:57:41;8.70;99.90
4081;DHT22;2055;50.074;8.436;2022-11-27T13:00:19;8.50;99.90
4081;DHT22;2055;50.074;8.436;2022-11-27T13:03:03;8.60;99.90
4081;DHT22;2055;50.074;8.436;2022-11-27T13:11:13;8.70;99.90
4081;DHT22;2055;50.074;8.436;2022-11-27T13:13:46;8.70;99.90
4081;DHT22;2055;50.074;8.436;2022-11-27T13:16:18;8.60;99.90
4081;DHT22;2055;50.074;8.436;2022-11-27T13:18:50;8.70;99.90
4081;DHT22;2055;50.074;8.436;2022-11-27T13:21:23;8.60;99.90
4081;DHT22;2055;50.074;8.436;2022-11-27T13:23:50;8.60;99.90
4081;DHT22;2055;50.074;8.436;2022-11-27T13:26:24;8.50;99.90
4081;DHT22;2055;50.074;8.436;2022-11-27T13:28:57;8.40;99.90
4081;DHT22;2055;50.074;8.436;2022-11-27T13:31:27;8.40;99.90
4081;DHT22;2055;50.074;8.436;2022-11-27T13:34:05;8.00;99.90
4081;DHT22;2055;50.074;8.436;2022-11-27T13:36:40;7.90;99.90
4081;DHT22;2055;50.074;8.436;2022-11-27T13:39:23;8.00;99.90
4081;DHT22;2055;50.074;8.436;2022-11-27T13:41:59;7.90;99.90
4081;DHT22;2055;50.074;8.436;2022-11-27T13:44:27;8.00;99.90
4081;DHT22;2055;50.074;8.436;2022-11-27T13:46:58;8.20;99.90
4081;DHT22;2055;50.074;8.436;2022-11-27T13:49:28;8.10;99.90
4081;DHT22;2055;50.074;8.436;2022-11-27T13:52:11;8.10;99.90
4081;DHT22;2055;50.074;8.436;2022-11-27T13:54:38;8.00;99.90
4081;DHT22;2055;50.074;8.436;2022-11-27T13:57:12;8.00;99.90
4081;DHT22;2055;50.074;8.436;2022-11-27T13:59:38;7.90;99.90
4081;DHT22;2055;50.074;8.436;2022-11-27T14:02:06;7.70;99.90
4081;DHT22;2055;50.074;8.436;2022-11-27T14:04:33;7.80;99.90
4081;DHT22;2055;50.074;8.436;2022-11-27T14:07:05;7.90;99.90
4081;DHT22;2055;50.074;8.436;2022-11-27T14:09:44;7.80;99.90
4081;DHT22;2055;50.074;8.436;2022-11-27T14:12:26;7.90;99.90
4081;DHT22;2055;50.074;8.436;2022-11-27T14:22:53;7.40;99.90
4081;DHT22;2055;50.074;8.436;2022-11-27T14:25:31;7.30;99.90
4081;DHT22;2055;50.074;8.436;2022-11-27T14:28:15;7.30;99.90
4081;DHT22;2055;50.074;8.436;2022-11-27T14:33:26;7.20;99.90
4081;DHT22;2055;50.074;8.436;2022-11-27T14:35:54;7.10;99.90
4081;DHT22;2055;50.074;8.436;2022-11-27T14:38:21;7.00;99.90
4081;DHT22;2055;50.074;8.436;2022-11-27T14:40:48;7.00;99.90
4081;DHT22;2055;50.074;8.436;2022-11-27T14:43:16;7.00;99.90
4081;DHT22;2055;50.074;8.436;2022-11-27T14:45:50;7.00;99.90
4081;DHT22;2055;50.074;8.436;2022-11-27T14:48:25;7.00;99.90
4081;DHT22;2055;50.074;8.436;2022-11-27T14:50:53;6.90;99.90
4081;DHT22;2055;50.074;8.436;2022-11-27T14:53:21;6.80;99.90
4081;DHT22;2055;50.074;8.436;2022-11-27T14:55:48;6.80;99.90
4081;DHT22;2055;50.074;8.436;2022-11-27T14:58:18;6.80;99.90
4081;DHT22;2055;50.074;8.436;2022-11-27T15:00:58;6.70;99.90
4081;DHT22;2055;50.074;8.436;2022-11-27T15:03:24;6.70;99.90
4081;DHT22;2055;50.074;8.436;2022-11-27T15:05:56;6.70;99.90
4081;DHT22;2055;50.074;8.436;2022-11-27T15:08:22;6.60;99.90
4081;DHT22;2055;50.074;8.436;2022-11-27T15:10:50;6.70;99.90
4081;DHT22;2055;50.074;8.436;2022-11-27T15:13:28;6.70;99.90
4081;DHT22;2055;50.074;8.436;2022-11-27T15:16:00;6.70;99.90
4081;DHT22;2055;50.074;8.436;2022-11-27T15:18:27;6.70;99.90
4081;DHT22;2055;50.074;8.436;2022-11-27T15:20:54;6.70;99.90
4081;DHT22;2055;50.074;8.436;2022-11-27T15:23:30;6.70;99.90
4081;DHT22;2055;50.074;8.436;2022-11-27T15:26:03;6.70;99.90
4081;DHT22;2055;50.074;8.436;2022-11-27T15:28:36;6.70;99.90
4081;DHT22;2055;50.074;8.436;2022-11-27T15:31:21;6.70;99.90
4081;DHT22;2055;50.074;8.436;2022-11-27T15:36:59;6.60;99.90
4081;DHT22;2055;50.074;8.436;2022-11-27T15:39:47;6.50;99.90
4081;DHT22;2055;50.074;8.436;2022-11-27T15:42:16;6.50;99.90
4081;DHT22;2055;50.074;8.436;2022-11-27T15:44:43;6.40;99.90
4081;DHT22;2055;50.074;8.436;2022-11-27T15:47:29;6.50;99.90
4081;DHT22;2055;50.074;8.436;2022-11-27T15:49:56;6.40;99.90
4081;DHT22;2055;50.074;8.436;2022-11-27T15:52:23;6.40;99.90
4081;DHT22;2055;50.074;8.436;2022-11-27T15:54:49;6.40;99.90
4081;DHT22;2055;50.074;8.436;2022-11-27T15:57:15;6.40;99.90
4081;DHT22;2055;50.074;8.436;2022-11-27T15:59:40;6.50;99.90
4081;DHT22;2055;50.074;8.436;2022-11-27T16:02:06;6.50;99.90
4081;DHT22;2055;50.074;8.436;2022-11-27T16:04:33;6.50;99.90
4081;DHT22;2055;50.074;8.436;2022-11-27T16:06:59;6.50;99.90
4081;DHT22;2055;50.074;8.436;2022-11-27T16:09:25;6.50;99.90
4081;DHT22;2055;50.074;8.436;2022-11-27T16:11:50;6.80;99.90
4081;DHT22;2055;50.074;8.436;2022-11-27T16:14:16;6.50;99.90
4081;DHT22;2055;50.074;8.436;2022-11-27T16:16:41;6.50;99.90
4081;DHT22;2055;50.074;8.436;2022-11-27T16:19:07;6.50;99.90
4081;DHT22;2055;50.074;8.436;2022-11-27T16:21:36;6.40;99.90
4081;DHT22;2055;50.074;8.436;2022-11-27T16:24:04;6.50;99.90
4081;DHT22;2055;50.074;8.436;2022-11-27T16:26:30;6.50;99.90
4081;DHT22;2055;50.074;8.436;2022-11-27T16:28:55;6.50;99.90
4081;DHT22;2055;50.074;8.436;2022-11-27T16:31:22;6.50;99.90
4081;DHT22;2055;50.074;8.436;2022-11-27T16:33:48;6.50;99.90
4081;DHT22;2055;50.074;8.436;2022-11-27T16:36:15;6.60;99.90
4081;DHT22;2055;50.074;8.436;2022-11-27T16:38:42;6.60;99.90
4081;DHT22;2055;50.074;8.436;2022-11-27T16:41:12;6.50;99.90
4081;DHT22;2055;50.074;8.436;2022-11-27T16:43:44;6.50;99.90
4081;DHT22;2055;50.074;8.436;2022-11-27T16:46:18;6.50;99.90
4081;DHT22;2055;50.074;8.436;2022-11-27T16:48:45;6.80;99.90
4081;DHT22;2055;50.074;8.436;2022-11-27T16:51:20;6.50;99.90
4081;DHT22;2055;50.074;8.436;2022-11-27T16:53:49;6.60;99.90
4081;DHT22;2055;50.074;8.436;2022-11-27T16:56:16;6.60;99.90
4081;DHT22;2055;50.074;8.436;2022-11-27T16:58:43;6.60;99.90
4081;DHT22;2055;50.074;8.436;2022-11-27T17:01:12;6.60;99.90
4081;DHT22;2055;50.074;8.436;2022-11-27T17:03:38;6.60;99.90
4081;DHT22;2055;50.074;8.436;2022-11-27T17:06:11;6.60;99.90
4081;DHT22;2055;50.074;8.436;2022-11-27T17:08:38;6.60;99.90
4081;DHT22;2055;50.074;8.436;2022-11-27T17:11:15;6.60;99.90
4081;DHT22;2055;50.074;8.436;2022-11-27T17:13:42;6.60;99.90
4081;DHT22;2055;50.074;8.436;2022-11-27T17:16:08;6.60;99.90
4081;DHT22;2055;50.074;8.436;2022-11-27T17:18:37;6.60;99.90
4081;DHT22;2055;50.074;8.436;2022-11-27T17:21:06;6.60;99.90
4081;DHT22;2055;50.074;8.436;2022-11-27T17:23:32;6.70;99.90
4081;DHT22;2055;50.074;8.436;2022-11-27T17:26:04;6.70;99.90
4081;DHT22;2055;50.074;8.436;2022-11-27T17:28:29;6.70;99.90
4081;DHT22;2055;50.074;8.436;2022-11-27T17:30:55;6.70;99.90
4081;DHT22;2055;50.074;8.436;2022-11-27T17:33:20;6.70;99.90
4081;DHT22;2055;50.074;8.436;2022-11-27T17:35:46;6.70;99.90
4081;DHT22;2055;50.074;8.436;2022-11-27T17:38:11;6.70;99.90
4081;DHT22;2055;50.074;8.436;2022-11-27T17:40:37;6.70;99.90
4081;DHT22;2055;50.074;8.436;2022-11-27T17:43:03;6.60;99.90
4081;DHT22;2055;50.074;8.436;2022-11-27T17:45:28;6.60;99.90
4081;DHT22;2055;50.074;8.436;2022-11-27T17:47:54;6.60;99.90
4081;DHT22;2055;50.074;8.436;2022-11-27T17:50:19;6.60;99.90
4081;DHT22;2055;50.074;8.436;2022-11-27T17:52:45;6.60;99.90
4081;DHT22;2055;50.074;8.436;2022-11-27T17:55:10;6.60;99.90
4081;DHT22;2055;50.074;8.436;2022-11-27T17:57:36;6.60;99.90
4081;DHT22;2055;50.074;8.436;2022-11-27T18:00:01;6.60;99.90
4081;DHT22;2055;50.074;8.436;2022-11-27T18:02:27;6.60;99.90
4081;DHT22;2055;50.074;8.436;2022-11-27T18:04:53;6.60;99.90
4081;DHT22;2055;50.074;8.436;2022-11-27T18:07:18;6.50;99.90
4081;DHT22;2055;50.074;8.436;2022-11-27T18:09:44;6.50;99.90
4081;DHT22;2055;50.074;8.436;2022-11-27T18:12:10;6.50;99.90
4081;DHT22;2055;50.074;8.436;2022-11-27T18:14:35;6.50;99.90